Time;durP1;ratioP1;P1;durP2;ratioP2;P2;SDS_P1;SDS_P2;PMS_P1;PMS_P2;Temp;Humidity;BMP_temperature;BMP_pressure;BME280_temperature;BME280_humidity;BME280_pressure;Samples;Min_cycle;Max_cycle;Signal;HPM_P1;HPM_P2
2022/04/20 00:00:59;;;;;;;3.63;2.90;;;11.10;53.70;;;;;;2096075;28;20021;-68
2022/04/20 00:02:00;;;;;;;3.65;2.72;;;11.00;53.60;;;;;;2094051;28;20074;-68
2022/04/20 00:03:02;;;;;;;3.55;2.58;;;11.00;53.90;;;;;;2094532;28;20017;-68
2022/04/20 00:04:03;;;;;;;4.43;3.00;;;11.00;53.90;;;;;;2097656;28;20028;-68
2022/04/20 00:05:04;;;;;;;3.35;2.55;;;10.90;53.80;;;;;;2095895;28;20609;-68
2022/04/20 00:06:06;;;;;;;4.75;2.28;;;10.90;53.80;;;;;;2096945;28;20055;-68
2022/04/20 00:07:06;;;;;;;3.03;2.30;;;10.90;53.60;;;;;;2095137;28;20055;-68
2022/04/20 00:08:07;;;;;;;3.72;2.90;;;10.80;53.40;;;;;;2096394;28;20495;-68
2022/04/20 00:09:08;;;;;;;5.53;2.83;;;10.80;53.50;;;;;;2097955;28;20093;-68
2022/04/20 00:10:09;;;;;;;2.88;2.58;;;10.80;53.70;;;;;;2092996;28;20029;-68
2022/04/20 00:11:09;;;;;;;4.47;3.17;;;10.80;53.70;;;;;;2094142;28;20068;-68
2022/04/20 00:12:11;;;;;;;4.88;2.85;;;10.70;53.60;;;;;;2097862;28;20080;-68
2022/04/20 00:13:11;;;;;;;5.07;2.72;;;10.70;53.60;;;;;;2097903;28;20055;-68
2022/04/20 00:14:12;;;;;;;4.35;2.97;;;10.70;53.70;;;;;;2095210;28;20602;-68
2022/04/20 00:15:12;;;;;;;2.40;2.20;;;10.70;53.70;;;;;;2096538;28;20086;-68
2022/04/20 00:16:13;;;;;;;3.42;2.63;;;10.70;53.60;;;;;;2094286;28;20059;-68
2022/04/20 00:17:13;;;;;;;3.00;2.67;;;10.60;53.40;;;;;;2096813;28;20447;-68
2022/04/20 00:18:14;;;;;;;3.67;2.58;;;10.60;53.60;;;;;;2094457;28;20025;-68
2022/04/20 00:19:14;;;;;;;4.05;2.60;;;10.60;53.60;;;;;;2097671;28;20100;-68
2022/04/20 00:20:15;;;;;;;4.40;2.75;;;10.60;53.70;;;;;;2099795;28;20024;-68
2022/04/20 00:21:16;;;;;;;7.35;2.85;;;10.60;54.10;;;;;;2097503;28;20047;-68
2022/04/20 00:22:17;;;;;;;3.30;2.83;;;10.60;54.10;;;;;;2097816;28;20036;-68
2022/04/20 00:23:17;;;;;;;3.95;2.40;;;10.50;54.10;;;;;;2093838;28;20020;-68
2022/04/20 00:24:18;;;;;;;4.75;3.20;;;10.50;54.20;;;;;;2094202;28;20057;-68
2022/04/20 00:25:18;;;;;;;2.88;2.40;;;10.50;54.40;;;;;;2095798;28;20029;-68
2022/04/20 00:26:19;;;;;;;3.05;2.70;;;10.50;54.60;;;;;;2095455;28;20035;-68
2022/04/20 00:27:19;;;;;;;4.38;2.90;;;10.50;54.30;;;;;;2095175;28;20029;-68
2022/04/20 00:28:20;;;;;;;4.13;2.75;;;10.50;54.50;;;;;;2096485;28;20056;-67
2022/04/20 00:29:20;;;;;;;3.22;2.85;;;10.40;54.90;;;;;;2093682;28;20033;-68
2022/04/20 00:30:21;;;;;;;4.13;3.22;;;10.40;54.90;;;;;;2097614;28;20028;-68
2022/04/20 00:31:21;;;;;;;3.22;2.60;;;10.40;55.10;;;;;;2094034;28;20458;-68
2022/04/20 00:32:22;;;;;;;4.03;2.13;;;10.40;55.10;;;;;;2093903;28;20143;-68
2022/04/20 00:33:22;;;;;;;4.25;2.53;;;10.30;54.80;;;;;;2097360;28;20028;-67
2022/04/20 00:34:23;;;;;;;4.78;2.72;;;10.30;55.30;;;;;;2097967;28;20531;-68
2022/04/20 00:35:24;;;;;;;2.88;2.50;;;10.30;54.90;;;;;;2096751;28;20032;-68
2022/04/20 00:36:24;;;;;;;3.80;2.80;;;10.30;54.90;;;;;;2097743;28;20078;-67
2022/04/20 00:37:25;;;;;;;3.20;2.90;;;10.30;54.90;;;;;;2093278;28;20037;-68
2022/04/20 00:38:25;;;;;;;7.07;2.80;;;10.30;55.30;;;;;;2097476;28;20032;-67
2022/04/20 00:39:26;;;;;;;3.10;2.83;;;10.20;55.90;;;;;;2094602;28;20103;-67
2022/04/20 00:40:27;;;;;;;3.33;2.67;;;10.30;55.50;;;;;;2093765;28;20021;-67
2022/04/20 00:41:28;;;;;;;4.22;2.53;;;10.20;55.50;;;;;;2097532;28;20086;-68
2022/04/20 00:42:32;;;;;;;2.88;2.40;;;10.20;55.30;;;;;;2093971;28;20052;-68
2022/04/20 00:43:32;;;;;;;2.58;2.38;;;10.20;55.40;;;;;;2096385;28;20028;-68
2022/04/20 00:44:33;;;;;;;3.97;3.20;;;10.20;55.60;;;;;;2098546;28;20037;-68
2022/04/20 00:45:35;;;;;;;2.55;2.30;;;10.20;55.60;;;;;;2097114;28;20025;-68
2022/04/20 00:46:38;;;;;;;4.30;3.25;;;10.10;55.30;;;;;;2097864;28;20430;-68
2022/04/20 00:47:43;;;;;;;4.03;2.50;;;10.10;56.30;;;;;;2099845;28;20040;-68
2022/04/20 00:48:43;;;;;;;4.20;2.78;;;10.10;55.60;;;;;;2097382;28;20093;-68
2022/04/20 00:49:46;;;;;;;6.20;2.58;;;10.10;56.00;;;;;;2098111;28;20480;-67
2022/04/20 00:50:47;;;;;;;3.40;2.78;;;10.00;55.60;;;;;;2097712;28;20031;-67
2022/04/20 00:51:53;;;;;;;3.15;2.85;;;10.00;55.90;;;;;;2093653;28;20108;-67
2022/04/20 00:52:53;;;;;;;4.40;2.92;;;10.00;55.80;;;;;;2097663;28;20122;-68
2022/04/20 00:53:59;;;;;;;2.78;2.53;;;10.00;55.70;;;;;;2097674;28;20099;-68
2022/04/20 00:55:00;;;;;;;4.30;2.83;;;9.90;55.70;;;;;;2093825;28;20103;-68
2022/04/20 00:56:00;;;;;;;5.43;3.13;;;9.90;55.80;;;;;;2096878;28;20036;-67
2022/04/20 00:57:01;;;;;;;6.82;2.70;;;9.90;55.90;;;;;;2095558;28;20031;-68
2022/04/20 00:58:02;;;;;;;3.95;2.88;;;9.90;56.10;;;;;;2096275;28;20066;-68
2022/04/20 00:59:02;;;;;;;2.95;2.65;;;9.90;56.50;;;;;;2097545;28;20035;-68
2022/04/20 01:00:04;;;;;;;2.53;2.25;;;9.90;56.20;;;;;;2093403;28;20480;-68
2022/04/20 01:01:05;;;;;;;3.83;2.47;;;9.80;55.90;;;;;;2096600;28;20111;-68
2022/04/20 01:02:05;;;;;;;3.15;2.85;;;9.80;55.90;;;;;;2097735;28;20028;-67
2022/04/20 01:03:06;;;;;;;5.47;2.85;;;9.80;56.00;;;;;;2097363;28;20109;-68
2022/04/20 01:04:07;;;;;;;3.67;3.00;;;9.80;56.40;;;;;;2097278;28;20029;-67
2022/04/20 01:05:07;;;;;;;4.13;3.00;;;9.80;56.40;;;;;;2096241;28;20029;-68
2022/04/20 01:06:08;;;;;;;3.42;2.72;;;9.80;56.70;;;;;;2089974;28;20460;-68
2022/04/20 01:07:13;;;;;;;4.30;2.75;;;9.80;56.90;;;;;;2096992;28;20517;-67
2022/04/20 01:08:13;;;;;;;3.20;2.70;;;9.70;56.60;;;;;;2096491;28;20361;-68
2022/04/20 01:09:14;;;;;;;2.92;2.67;;;9.70;56.70;;;;;;2096515;28;20051;-68
2022/04/20 01:10:15;;;;;;;4.90;3.10;;;9.70;56.50;;;;;;2097030;28;20539;-67
2022/04/20 01:11:15;;;;;;;3.53;3.10;;;9.70;56.80;;;;;;2109128;28;20402;-68
2022/04/20 01:12:18;;;;;;;4.68;2.80;;;9.70;57.10;;;;;;2113071;28;20062;-68
2022/04/20 01:13:18;;;;;;;3.75;2.92;;;9.60;57.10;;;;;;2097429;28;20047;-68
2022/04/20 01:14:20;;;;;;;3.33;2.70;;;9.60;56.80;;;;;;2095454;28;20084;-68
2022/04/20 01:15:20;;;;;;;3.47;3.13;;;9.60;56.70;;;;;;2094332;28;20056;-68
2022/04/20 01:16:33;;;;;;;5.38;3.10;;;9.60;56.80;;;;;;2096295;28;20035;-68
2022/04/20 01:17:34;;;;;;;3.40;2.83;;;9.60;57.20;;;;;;2093186;28;20028;-67
2022/04/20 01:18:41;;;;;;;3.53;2.70;;;9.50;57.20;;;;;;2096397;28;20028;-67
2022/04/20 01:19:42;;;;;;;4.57;3.15;;;9.50;57.10;;;;;;2091722;28;20576;-67
2022/04/20 01:20:43;;;;;;;4.38;2.45;;;9.50;57.00;;;;;;2096713;28;20107;-67
2022/04/20 01:21:43;;;;;;;3.10;2.80;;;9.50;56.80;;;;;;2096463;28;20020;-67
2022/04/20 01:22:44;;;;;;;3.05;2.47;;;9.50;56.70;;;;;;2096645;28;20036;-68
2022/04/20 01:23:45;;;;;;;2.75;2.50;;;9.40;56.70;;;;;;2094886;28;20146;-68
2022/04/20 01:24:45;;;;;;;3.08;2.78;;;9.40;57.00;;;;;;2098178;28;20032;-68
2022/04/20 01:25:47;;;;;;;3.20;2.80;;;9.40;57.20;;;;;;2097438;28;20710;-68
2022/04/20 01:26:48;;;;;;;3.33;2.67;;;9.40;57.20;;;;;;2097114;28;20032;-68
2022/04/20 01:27:48;;;;;;;2.92;2.58;;;9.40;57.40;;;;;;2093516;28;20032;-67
2022/04/20 01:28:50;;;;;;;3.80;3.10;;;9.40;57.50;;;;;;2095985;28;20044;-68
2022/04/20 01:29:51;;;;;;;3.25;2.72;;;9.40;57.50;;;;;;2094956;28;20460;-67
2022/04/20 01:30:52;;;;;;;3.22;2.88;;;9.30;57.60;;;;;;2095477;28;20407;-68
2022/04/20 01:31:53;;;;;;;5.78;2.95;;;9.30;57.60;;;;;;2097035;28;20071;-68
2022/04/20 01:32:57;;;;;;;3.22;2.63;;;9.30;57.60;;;;;;2093392;28;20067;-68
2022/04/20 01:33:57;;;;;;;4.57;2.95;;;9.30;58.10;;;;;;2093480;28;20052;-68
2022/04/20 01:34:58;;;;;;;4.20;3.10;;;9.20;58.10;;;;;;2095545;28;20036;-68
2022/04/20 01:35:59;;;;;;;3.78;3.13;;;9.20;57.90;;;;;;2094707;28;20093;-68
2022/04/20 01:37:00;;;;;;;3.00;2.80;;;9.20;58.00;;;;;;2094386;28;20037;-68
2022/04/20 01:38:00;;;;;;;2.80;2.60;;;9.20;57.90;;;;;;2095994;28;20051;-67
2022/04/20 01:39:01;;;;;;;3.25;2.95;;;9.20;57.90;;;;;;2097290;28;20017;-68
2022/04/20 01:40:02;;;;;;;4.40;3.00;;;9.20;57.90;;;;;;2093071;28;20033;-68
2022/04/20 01:41:02;;;;;;;3.17;2.63;;;9.20;58.00;;;;;;2097405;28;20036;-68
2022/04/20 01:42:03;;;;;;;3.38;3.08;;;9.10;58.20;;;;;;2093144;28;20025;-67
2022/04/20 01:43:04;;;;;;;3.30;3.00;;;9.10;58.40;;;;;;2097189;28;20073;-67
2022/04/20 01:44:05;;;;;;;3.38;3.08;;;9.10;58.80;;;;;;2096737;28;20466;-68
2022/04/20 01:45:06;;;;;;;3.38;3.08;;;9.10;58.60;;;;;;2096309;28;20490;-67
2022/04/20 01:46:07;;;;;;;2.80;2.60;;;9.10;58.60;;;;;;2094974;28;20139;-67
2022/04/20 01:47:07;;;;;;;3.95;3.30;;;9.10;58.60;;;;;;2093528;28;20032;-68
2022/04/20 01:48:08;;;;;;;3.25;2.90;;;9.00;58.80;;;;;;2092545;28;20024;-68
2022/04/20 01:49:08;;;;;;;3.30;2.88;;;9.00;58.80;;;;;;2095435;28;20027;-68
2022/04/20 01:50:09;;;;;;;3.80;2.88;;;9.00;59.00;;;;;;2096879;28;20024;-67
2022/04/20 01:52:29;;;;;;;3.47;2.92;;;9.00;58.90;;;;;;2095129;28;20500;-68
2022/04/20 01:53:32;;;;;;;5.00;3.15;;;8.90;59.00;;;;;;2095487;28;20688;-67
2022/04/20 01:54:33;;;;;;;4.20;3.10;;;8.90;59.20;;;;;;2099599;28;20077;-67
2022/04/20 01:55:34;;;;;;;3.83;2.80;;;8.90;59.30;;;;;;2093171;28;20020;-67
2022/04/20 01:56:34;;;;;;;3.22;2.90;;;8.90;59.00;;;;;;2096582;28;20028;-68
2022/04/20 01:57:35;;;;;;;3.38;3.08;;;8.90;58.90;;;;;;2096296;28;20021;-67
2022/04/20 01:58:35;;;;;;;4.95;3.22;;;8.90;59.10;;;;;;2091722;28;20020;-67
2022/04/20 01:59:36;;;;;;;3.35;3.05;;;8.90;59.30;;;;;;2093058;28;20029;-68
2022/04/20 02:00:36;;;;;;;4.93;3.25;;;8.90;59.40;;;;;;2096824;28;20024;-68
2022/04/20 02:02:56;;;;;;;3.20;2.95;;;8.90;59.60;;;;;;2096807;28;20557;-68
2022/04/20 02:03:57;;;;;;;4.32;2.88;;;8.80;59.70;;;;;;2097197;28;20025;-68
2022/04/20 02:04:57;;;;;;;4.50;2.85;;;8.80;59.60;;;;;;2096258;28;20032;-68
2022/04/20 02:05:58;;;;;;;3.50;3.20;;;8.90;59.80;;;;;;2093836;28;20034;-68
2022/04/20 02:06:58;;;;;;;3.50;3.00;;;8.80;59.70;;;;;;2096888;28;20510;-68
2022/04/20 02:07:59;;;;;;;6.18;3.40;;;8.90;59.90;;;;;;2094592;28;20432;-68
2022/04/20 02:08:59;;;;;;;3.88;3.20;;;8.80;59.90;;;;;;2095504;28;20033;-68
2022/04/20 02:10:00;;;;;;;5.05;3.17;;;8.80;59.90;;;;;;2097028;28;20036;-68
2022/04/20 02:11:01;;;;;;;3.45;2.92;;;8.80;59.70;;;;;;2096378;28;20036;-68
2022/04/20 02:12:05;;;;;;;3.70;2.63;;;8.80;59.60;;;;;;2096341;28;20079;-68
2022/04/20 02:13:05;;;;;;;3.17;2.88;;;8.80;59.30;;;;;;2096563;28;20036;-68
2022/04/20 02:14:06;;;;;;;2.72;2.53;;;8.80;59.30;;;;;;2094214;28;20498;-67
2022/04/20 02:15:07;;;;;;;3.88;2.97;;;8.80;59.20;;;;;;2095483;28;20029;-67
2022/04/20 02:16:07;;;;;;;6.90;3.05;;;8.80;59.30;;;;;;2093677;28;20103;-68
2022/04/20 02:17:08;;;;;;;3.60;3.00;;;8.80;59.50;;;;;;2096420;28;20028;-68
2022/04/20 02:18:08;;;;;;;3.17;2.67;;;8.80;59.90;;;;;;2093366;28;20048;-68
2022/04/20 02:19:09;;;;;;;3.40;2.95;;;8.80;59.80;;;;;;2095030;28;20052;-68
2022/04/20 02:20:10;;;;;;;3.38;3.08;;;8.80;59.70;;;;;;2094599;28;20480;-68
2022/04/20 02:21:11;;;;;;;4.22;2.95;;;8.80;59.90;;;;;;2092203;28;20045;-68
2022/04/20 02:22:12;;;;;;;2.95;2.63;;;8.80;59.70;;;;;;2096430;28;20051;-68
2022/04/20 02:23:12;;;;;;;3.33;2.85;;;8.80;59.50;;;;;;2095529;28;20432;-68
2022/04/20 02:24:14;;;;;;;5.95;2.63;;;8.70;59.70;;;;;;2092785;28;20029;-68
2022/04/20 02:25:15;;;;;;;3.38;3.05;;;8.70;59.60;;;;;;2094991;28;20024;-68
2022/04/20 02:26:16;;;;;;;2.97;2.25;;;8.70;59.80;;;;;;2093794;28;20017;-67
2022/04/20 02:27:16;;;;;;;3.22;2.60;;;8.70;60.00;;;;;;2094175;28;20060;-67
2022/04/20 02:28:18;;;;;;;3.63;2.92;;;8.70;59.60;;;;;;2095476;28;20021;-67
2022/04/20 02:29:18;;;;;;;2.80;2.53;;;8.70;59.90;;;;;;2092971;28;20024;-67
2022/04/20 02:30:19;;;;;;;2.80;2.60;;;8.70;59.60;;;;;;2096345;28;20028;-67
2022/04/20 02:31:19;;;;;;;3.55;2.80;;;8.70;59.70;;;;;;2093754;28;20460;-68
2022/04/20 02:32:22;;;;;;;4.38;3.00;;;8.70;59.80;;;;;;2094895;28;20373;-68
2022/04/20 02:33:22;;;;;;;2.70;2.50;;;8.70;60.20;;;;;;2096747;28;20012;-68
2022/04/20 02:34:23;;;;;;;3.00;2.70;;;8.70;59.90;;;;;;2096699;28;20024;-68
2022/04/20 02:35:23;;;;;;;5.40;2.42;;;8.70;60.00;;;;;;2092665;28;20468;-68
2022/04/20 02:36:24;;;;;;;3.25;2.95;;;8.70;60.00;;;;;;2096185;28;20435;-67
2022/04/20 02:37:24;;;;;;;3.28;2.97;;;8.60;60.80;;;;;;2092835;28;20023;-68
2022/04/20 02:38:27;;;;;;;3.00;2.58;;;8.60;60.90;;;;;;2097787;28;20594;-68
2022/04/20 02:39:27;;;;;;;3.78;3.00;;;8.60;60.60;;;;;;2094837;28;20055;-68
2022/04/20 02:40:30;;;;;;;3.15;2.80;;;8.60;61.00;;;;;;2094418;28;20024;-68
2022/04/20 02:41:36;;;;;;;3.17;2.65;;;8.60;61.10;;;;;;2091676;28;20039;-68
2022/04/20 02:42:37;;;;;;;2.75;2.55;;;8.60;61.40;;;;;;2095172;28;20438;-68
2022/04/20 02:43:37;;;;;;;2.90;2.70;;;8.60;61.30;;;;;;2097521;28;20025;-68
2022/04/20 02:44:39;;;;;;;3.45;2.60;;;8.50;61.00;;;;;;2096216;28;20025;-68
2022/04/20 02:45:41;;;;;;;4.13;3.28;;;8.50;60.90;;;;;;2096391;28;20020;-68
2022/04/20 02:46:42;;;;;;;4.70;3.17;;;8.50;61.80;;;;;;2092409;28;20040;-68
2022/04/20 02:47:43;;;;;;;3.45;3.03;;;8.50;61.90;;;;;;2093271;28;20032;-68
2022/04/20 02:48:44;;;;;;;3.05;2.63;;;8.50;61.50;;;;;;2094638;28;20060;-68
2022/04/20 02:49:44;;;;;;;3.60;3.30;;;8.50;61.50;;;;;;2095788;28;20036;-68
2022/04/20 02:50:46;;;;;;;3.50;3.20;;;8.40;62.10;;;;;;2096286;28;20060;-68
2022/04/20 02:51:46;;;;;;;3.30;3.00;;;8.40;62.20;;;;;;2096672;28;20052;-68
2022/04/20 02:52:47;;;;;;;4.32;2.90;;;8.40;62.10;;;;;;2093229;28;20039;-68
2022/04/20 02:53:47;;;;;;;3.08;2.78;;;8.40;62.40;;;;;;2096500;28;20047;-68
2022/04/20 02:54:48;;;;;;;4.00;3.60;;;8.40;62.30;;;;;;2094443;28;20029;-68
2022/04/20 02:55:48;;;;;;;4.90;3.15;;;8.40;62.30;;;;;;2095978;28;20040;-68
2022/04/20 02:56:49;;;;;;;3.22;2.97;;;8.30;62.00;;;;;;2094684;28;20472;-68
2022/04/20 02:57:50;;;;;;;2.88;2.58;;;8.30;62.90;;;;;;2093968;28;20031;-68
2022/04/20 02:58:51;;;;;;;3.42;2.72;;;8.30;62.50;;;;;;2094788;28;20452;-68
2022/04/20 02:59:52;;;;;;;3.40;3.10;;;8.30;62.60;;;;;;2093040;28;20502;-68
2022/04/20 03:00:52;;;;;;;2.95;2.75;;;8.30;62.90;;;;;;2096051;28;20020;-68
2022/04/20 03:01:53;;;;;;;4.05;2.78;;;8.30;62.90;;;;;;2093486;28;20025;-68
2022/04/20 03:02:54;;;;;;;4.75;3.55;;;8.20;62.80;;;;;;2094754;28;20024;-68
2022/04/20 03:03:54;;;;;;;4.15;2.90;;;8.20;63.10;;;;;;2094426;28;20031;-68
2022/04/20 03:04:55;;;;;;;2.83;2.63;;;8.20;63.40;;;;;;2095032;28;20108;-68
2022/04/20 03:05:56;;;;;;;4.32;3.58;;;8.20;63.20;;;;;;2095839;28;20530;-68
2022/04/20 03:06:57;;;;;;;3.20;3.00;;;8.20;63.40;;;;;;2095395;28;20016;-68
2022/04/20 03:07:57;;;;;;;6.38;3.08;;;8.10;64.30;;;;;;2092229;28;20029;-68
2022/04/20 03:08:58;;;;;;;3.33;2.83;;;8.10;64.00;;;;;;2095392;28;20027;-68
2022/04/20 03:09:59;;;;;;;3.25;2.95;;;8.10;64.20;;;;;;2092385;28;20040;-68
2022/04/20 03:10:59;;;;;;;3.85;3.25;;;8.10;64.10;;;;;;2094176;28;20040;-68
2022/04/20 03:12:00;;;;;;;3.45;2.75;;;8.10;64.60;;;;;;2095193;28;20028;-68
2022/04/20 03:13:00;;;;;;;3.08;2.78;;;8.00;64.70;;;;;;2094945;28;20044;-68
2022/04/20 03:14:01;;;;;;;3.15;2.80;;;8.10;64.20;;;;;;2095874;28;20471;-68
2022/04/20 03:15:01;;;;;;;3.22;2.90;;;8.00;64.40;;;;;;2093156;28;20025;-68
2022/04/20 03:16:02;;;;;;;3.42;3.13;;;8.00;64.70;;;;;;2094918;28;20024;-68
2022/04/20 03:17:03;;;;;;;4.60;2.88;;;8.00;65.30;;;;;;2094670;28;20028;-68
2022/04/20 03:18:03;;;;;;;4.40;3.05;;;8.00;65.10;;;;;;2095856;28;20096;-68
2022/04/20 03:19:04;;;;;;;4.35;3.20;;;7.90;65.00;;;;;;2095560;28;20484;-67
2022/04/20 03:20:05;;;;;;;4.85;3.03;;;7.90;65.30;;;;;;2096137;28;20028;-68
2022/04/20 03:21:06;;;;;;;4.20;3.13;;;7.90;65.60;;;;;;2092724;28;20029;-68
2022/04/20 03:22:06;;;;;;;4.15;3.55;;;7.90;65.50;;;;;;2097491;28;20081;-68
2022/04/20 03:23:07;;;;;;;4.00;3.20;;;7.90;65.70;;;;;;2093901;28;20074;-68
2022/04/20 03:24:08;;;;;;;3.72;3.42;;;7.90;65.60;;;;;;2094017;28;20073;-68
2022/04/20 03:25:11;;;;;;;4.20;2.97;;;7.90;66.10;;;;;;2094439;28;20148;-68
2022/04/20 03:26:11;;;;;;;3.80;3.40;;;7.80;65.40;;;;;;2092408;28;20122;-68
2022/04/20 03:27:12;;;;;;;3.85;3.50;;;7.80;65.40;;;;;;2096178;28;20025;-68
2022/04/20 03:28:12;;;;;;;3.53;3.15;;;7.80;65.90;;;;;;2092872;28;20020;-68
2022/04/20 03:29:13;;;;;;;3.97;3.28;;;7.80;66.00;;;;;;2096261;28;20120;-68
2022/04/20 03:30:14;;;;;;;3.97;3.40;;;7.80;67.00;;;;;;2092542;28;20025;-67
2022/04/20 03:31:14;;;;;;;3.47;3.17;;;7.70;66.40;;;;;;2096204;28;20155;-68
2022/04/20 03:32:16;;;;;;;3.08;2.78;;;7.70;66.30;;;;;;2095561;28;20036;-68
2022/04/20 03:33:17;;;;;;;3.85;3.45;;;7.70;66.00;;;;;;2096660;28;20107;-68
2022/04/20 03:34:17;;;;;;;4.45;3.00;;;7.70;66.10;;;;;;2099942;28;20029;-68
2022/04/20 03:35:19;;;;;;;3.40;2.97;;;7.70;65.90;;;;;;2094824;28;20051;-68
2022/04/20 03:36:19;;;;;;;3.38;3.08;;;7.70;65.90;;;;;;2095689;28;20052;-68
2022/04/20 03:37:20;;;;;;;4.03;3.63;;;7.70;66.00;;;;;;2092545;28;20025;-68
2022/04/20 03:38:21;;;;;;;4.18;3.05;;;7.60;66.70;;;;;;2095975;28;20056;-68
2022/04/20 03:39:22;;;;;;;5.05;3.40;;;7.60;67.20;;;;;;2092584;28;20019;-68
2022/04/20 03:40:22;;;;;;;3.65;3.28;;;7.60;67.00;;;;;;2092432;28;20036;-68
2022/04/20 03:41:23;;;;;;;4.50;3.85;;;7.60;67.70;;;;;;2096569;28;20107;-68
2022/04/20 03:42:23;;;;;;;4.78;3.55;;;7.60;67.70;;;;;;2092618;28;20024;-68
2022/04/20 03:43:24;;;;;;;3.60;3.28;;;7.60;67.50;;;;;;2096384;28;20024;-68
2022/04/20 03:44:26;;;;;;;3.75;3.08;;;7.50;67.70;;;;;;2095925;28;20032;-68
2022/04/20 03:45:27;;;;;;;4.65;3.83;;;7.50;67.20;;;;;;2091768;28;20096;-68
2022/04/20 03:46:27;;;;;;;4.28;3.50;;;7.50;67.00;;;;;;2096368;28;20020;-68
2022/04/20 03:47:28;;;;;;;4.18;3.78;;;7.50;67.10;;;;;;2096015;28;20077;-68
2022/04/20 03:48:29;;;;;;;6.57;3.83;;;7.50;67.50;;;;;;2092695;28;20029;-68
2022/04/20 03:49:30;;;;;;;4.25;3.83;;;7.50;67.70;;;;;;2096067;28;20467;-68
2022/04/20 03:50:31;;;;;;;6.07;4.50;;;7.50;67.70;;;;;;2097713;28;20022;-68
2022/04/20 03:51:32;;;;;;;5.03;4.05;;;7.50;68.20;;;;;;2095142;28;20028;-68
2022/04/20 03:52:33;;;;;;;5.63;3.95;;;7.40;68.90;;;;;;2096346;28;20017;-68
2022/04/20 03:53:33;;;;;;;4.43;3.47;;;7.40;68.90;;;;;;2093527;28;20077;-68
2022/04/20 03:54:37;;;;;;;6.35;4.25;;;7.40;68.90;;;;;;2095222;28;20095;-68
2022/04/20 03:55:38;;;;;;;5.43;3.80;;;7.40;69.80;;;;;;2093481;28;20028;-67
2022/04/20 03:57:58;;;;;;;5.93;3.90;;;7.40;69.40;;;;;;2091378;28;20103;-68
2022/04/20 03:58:58;;;;;;;5.10;3.90;;;7.40;69.40;;;;;;2092130;28;20025;-68
2022/04/20 03:59:59;;;;;;;5.13;3.50;;;7.40;70.10;;;;;;2094760;28;20112;-67
2022/04/20 04:01:00;;;;;;;6.03;3.67;;;7.30;69.10;;;;;;2096163;28;20025;-67
2022/04/20 04:02:02;;;;;;;4.13;3.78;;;7.40;69.00;;;;;;2093950;28;20031;-68
2022/04/20 04:03:02;;;;;;;4.55;3.97;;;7.30;68.80;;;;;;2096272;28;20043;-68
2022/04/20 04:04:05;;;;;;;4.15;3.50;;;7.40;69.70;;;;;;2096043;28;20024;-68
2022/04/20 04:05:06;;;;;;;5.18;4.25;;;7.40;70.30;;;;;;2094253;28;20495;-68
2022/04/20 04:06:06;;;;;;;4.85;4.20;;;7.30;70.20;;;;;;2093574;28;20380;-67
2022/04/20 04:07:07;;;;;;;5.22;4.60;;;7.30;70.40;;;;;;2095997;28;20029;-67
2022/04/20 04:08:07;;;;;;;5.55;3.47;;;7.30;70.90;;;;;;2090923;28;20132;-67
2022/04/20 04:09:08;;;;;;;5.65;3.75;;;7.30;70.30;;;;;;2095323;28;20829;-68
2022/04/20 04:10:09;;;;;;;7.03;4.60;;;7.30;70.60;;;;;;2090553;28;20463;-68
2022/04/20 04:11:09;;;;;;;4.38;3.97;;;7.30;71.10;;;;;;2094065;28;20032;-68
2022/04/20 04:12:10;;;;;;;6.35;3.80;;;7.30;71.20;;;;;;2095020;28;20036;-68
2022/04/20 04:13:11;;;;;;;4.88;4.00;;;7.30;70.50;;;;;;2096274;28;20548;-68
2022/04/20 04:14:12;;;;;;;6.25;3.70;;;7.30;70.30;;;;;;2095739;28;20024;-68
2022/04/20 04:15:12;;;;;;;5.28;3.65;;;7.30;70.00;;;;;;2095027;28;20038;-68
2022/04/20 04:16:13;;;;;;;4.50;3.33;;;7.30;69.40;;;;;;2093884;28;20028;-68
2022/04/20 04:17:13;;;;;;;4.20;3.80;;;7.30;69.10;;;;;;2094466;28;20424;-67
2022/04/20 04:18:14;;;;;;;6.68;4.30;;;7.30;69.10;;;;;;2091251;28;20028;-68
2022/04/20 04:19:15;;;;;;;4.47;4.00;;;7.30;69.90;;;;;;2092011;28;20042;-68
2022/04/20 04:20:15;;;;;;;6.80;3.88;;;7.30;70.40;;;;;;2098023;28;20090;-68
2022/04/20 04:21:17;;;;;;;4.68;4.10;;;7.30;69.70;;;;;;2092595;28;20468;-68
2022/04/20 04:22:17;;;;;;;3.60;3.30;;;7.30;70.40;;;;;;2094960;28;20028;-68
2022/04/20 04:23:18;;;;;;;5.30;3.90;;;7.30;70.10;;;;;;2090579;28;20104;-68
2022/04/20 04:24:37;;;;;;;5.65;3.78;;;7.30;70.30;;;;;;2093887;28;20419;-68
2022/04/20 04:25:38;;;;;;;4.22;3.88;;;7.20;70.10;;;;;;2092635;28;20017;-68
2022/04/20 04:26:40;;;;;;;3.63;3.33;;;7.20;71.20;;;;;;2095006;28;20119;-68
2022/04/20 04:27:41;;;;;;;6.45;4.50;;;7.20;70.60;;;;;;2092010;28;20093;-68
2022/04/20 04:28:41;;;;;;;4.28;3.88;;;7.20;71.30;;;;;;2094416;28;20037;-68
2022/04/20 04:29:42;;;;;;;4.55;4.07;;;7.20;71.90;;;;;;2099802;28;20102;-68
2022/04/20 04:30:42;;;;;;;4.05;3.65;;;7.20;72.20;;;;;;2097773;28;20032;-68
2022/04/20 04:31:43;;;;;;;3.92;3.63;;;7.20;71.20;;;;;;2095189;28;20123;-68
2022/04/20 04:32:43;;;;;;;4.80;3.50;;;7.20;71.30;;;;;;2093348;28;20035;-68
2022/04/20 04:33:44;;;;;;;4.30;3.90;;;7.20;70.90;;;;;;2094080;28;20025;-68
2022/04/20 04:34:44;;;;;;;4.60;3.92;;;7.20;70.90;;;;;;2092771;28;20428;-68
2022/04/20 04:35:45;;;;;;;4.72;3.97;;;7.20;72.00;;;;;;2094753;28;20484;-68
2022/04/20 04:36:46;;;;;;;5.80;3.75;;;7.20;72.90;;;;;;2094370;28;20114;-68
2022/04/20 04:37:46;;;;;;;6.20;4.93;;;7.20;73.00;;;;;;2110365;28;20016;-68
2022/04/20 04:38:47;;;;;;;5.07;4.28;;;7.20;73.00;;;;;;2109506;28;20032;-68
2022/04/20 04:39:47;;;;;;;4.63;3.65;;;7.20;73.50;;;;;;2095849;28;20021;-68
2022/04/20 04:40:48;;;;;;;5.05;3.88;;;7.20;72.90;;;;;;2095225;28;20013;-68
2022/04/20 04:41:52;;;;;;;5.53;4.10;;;7.10;72.70;;;;;;2096868;28;20028;-68
2022/04/20 04:42:52;;;;;;;6.95;4.63;;;7.10;73.40;;;;;;2096986;28;20482;-68
2022/04/20 04:43:53;;;;;;;7.25;3.97;;;7.10;73.40;;;;;;2096195;28;20020;-68
2022/04/20 04:44:53;;;;;;;7.60;4.82;;;7.10;73.90;;;;;;2095808;28;20047;-68
2022/04/20 04:48:42;;;;;;;5.55;3.40;;;7.10;73.50;;;;;;2095892;28;20025;-68
2022/04/20 04:49:42;;;;;;;6.20;4.60;;;7.10;73.10;;;;;;2094709;28;20493;-68
2022/04/20 04:50:43;;;;;;;5.13;4.15;;;7.10;73.80;;;;;;2095545;28;20717;-68
2022/04/20 04:51:43;;;;;;;4.32;3.92;;;7.10;74.30;;;;;;2096975;28;20020;-68
2022/04/20 04:52:44;;;;;;;6.10;4.00;;;7.10;74.20;;;;;;2097337;28;20052;-68
2022/04/20 04:53:45;;;;;;;4.95;3.55;;;7.10;74.20;;;;;;2096714;28;20020;-68
2022/04/20 04:54:46;;;;;;;4.20;3.80;;;7.10;74.30;;;;;;2095651;28;20039;-68
2022/04/20 04:55:46;;;;;;;5.68;3.83;;;7.10;74.00;;;;;;2095713;28;20113;-68
2022/04/20 04:56:47;;;;;;;6.20;3.85;;;7.10;74.50;;;;;;2097125;28;20033;-68
2022/04/20 04:57:47;;;;;;;7.20;3.95;;;7.10;74.40;;;;;;2096777;28;20233;-68
2022/04/20 04:58:48;;;;;;;4.13;3.58;;;7.10;75.10;;;;;;2096327;28;20289;-68
2022/04/20 04:59:48;;;;;;;5.47;4.10;;;7.10;74.10;;;;;;2097020;28;20028;-68
2022/04/20 05:00:49;;;;;;;5.70;3.90;;;7.10;75.10;;;;;;2094884;28;20104;-68
2022/04/20 05:01:50;;;;;;;6.35;4.72;;;7.10;75.40;;;;;;2097190;28;20032;-68
2022/04/20 05:02:51;;;;;;;8.25;4.57;;;7.10;76.10;;;;;;2096637;28;20043;-68
2022/04/20 05:03:53;;;;;;;3.92;3.55;;;7.00;77.00;;;;;;2095967;28;20025;-68
2022/04/20 05:04:54;;;;;;;4.60;4.07;;;7.10;76.30;;;;;;2095831;28;20624;-68
2022/04/20 05:05:54;;;;;;;5.30;4.43;;;7.10;77.10;;;;;;2096501;28;20384;-68
2022/04/20 05:06:56;;;;;;;4.65;3.40;;;7.00;77.60;;;;;;2097122;28;20138;-68
2022/04/20 05:07:57;;;;;;;5.15;4.63;;;7.10;77.00;;;;;;2096782;28;20112;-68
2022/04/20 05:08:57;;;;;;;6.10;4.22;;;7.10;77.80;;;;;;2097457;28;20032;-68
2022/04/20 05:09:58;;;;;;;5.05;4.53;;;7.10;78.20;;;;;;2098204;28;20027;-68
2022/04/20 05:10:58;;;;;;;5.68;4.38;;;7.10;79.00;;;;;;2097192;28;20412;-68
2022/04/20 05:11:59;;;;;;;7.88;4.80;;;7.10;79.40;;;;;;2097056;28;20075;-68
2022/04/20 05:13:00;;;;;;;7.43;4.57;;;7.10;79.70;;;;;;2096874;28;20078;-68
2022/04/20 05:14:01;;;;;;;6.72;4.85;;;7.10;80.10;;;;;;2097436;28;20594;-68
2022/04/20 05:15:02;;;;;;;8.85;5.00;;;7.10;80.90;;;;;;2096746;28;20553;-68
2022/04/20 05:16:03;;;;;;;7.90;4.82;;;7.10;81.50;;;;;;2096689;28;20099;-68
2022/04/20 05:17:03;;;;;;;6.60;4.70;;;7.10;82.00;;;;;;2094402;28;20092;-68
2022/04/20 05:18:04;;;;;;;4.97;4.47;;;7.10;82.40;;;;;;2096861;28;20021;-68
2022/04/20 05:19:05;;;;;;;8.38;4.80;;;7.10;82.70;;;;;;2095716;28;20116;-68
2022/04/20 05:20:06;;;;;;;8.15;5.10;;;7.20;83.20;;;;;;2096814;28;20104;-68
2022/04/20 05:21:07;;;;;;;5.50;4.75;;;7.20;83.50;;;;;;2094390;28;20063;-68
2022/04/20 05:22:07;;;;;;;5.30;4.65;;;7.20;83.60;;;;;;2094890;28;20032;-68
2022/04/20 05:23:08;;;;;;;4.70;4.15;;;7.30;83.80;;;;;;2096215;28;20020;-68
2022/04/20 05:24:09;;;;;;;5.85;4.50;;;7.30;84.40;;;;;;2097147;28;20036;-68
2022/04/20 05:25:10;;;;;;;6.05;4.43;;;7.40;84.70;;;;;;2093710;28;20031;-68
2022/04/20 05:26:10;;;;;;;5.18;4.53;;;7.40;84.80;;;;;;2095685;28;20020;-68
2022/04/20 05:27:11;;;;;;;8.80;4.57;;;7.50;84.70;;;;;;2096588;28;20020;-68
2022/04/20 05:28:11;;;;;;;7.05;4.25;;;7.50;84.10;;;;;;2092860;28;20021;-68